PWSweather.com
Personal Weather Stations
Station Observations
WESTON01
WestonSuperMareGB BS22 8RT

WestonSuperMareGB BS22 8RT

Lat: 51.351508, Lon: -2.933373

Elevation: 15

Station Type: Fine Offset WH1080

http://www.westonweather.co.uk

High Low Average
Temperature 69.3°F20.7°C 58.2°F14.6°C 62.7°F17.1°C
Dew Point 55.2°F12.9°C 47.8°F8.8°C 50.9°F10.5°C
Winds 12.0 mph 19.3 kmh 1.6 mph 2.6 kmh 6.0 mph W9.7 kmh W
Wind Gusts 26.2 mph42.2 kmh 4.5 mph7.2 kmh 10.0 mph16.1 kmh
Humidity 72% 53% 66%
Pressure 29.90 in1012.5 mb 29.75 in1007.5 mb -
Precipitation 0.04 in1.0 mm - -
Hour Temp Dew Point Humidity Winds Wind Gusts Pressure Precip Precip Rate Daily Precip Total
12:00 AM 58.4°F14.7°C 47.8°F8.8°C 68% 3.7 mph NW6.0 kmh NW 5.4 mph8.7 kmh 29.78 in1008.5 mb 0.00 in0.0 mm 0.00 in0.0 mm 0.00 in0.0 mm
12:05 AM 58.5°F14.7°C 48.0°F8.9°C 68% 3.9 mph NW6.3 kmh NW 5.7 mph9.2 kmh 29.78 in1008.5 mb 0.00 in0.0 mm 0.00 in0.0 mm 0.00 in0.0 mm
12:10 AM 58.5°F14.7°C 48.0°F8.9°C 68% 3.6 mph NW5.8 kmh NW 5.7 mph9.2 kmh 29.78 in1008.5 mb 0.00 in0.0 mm 0.00 in0.0 mm 0.00 in0.0 mm
12:15 AM 58.5°F14.7°C 48.0°F8.9°C 68% 3.6 mph NW5.8 kmh NW 6.2 mph10.0 kmh 29.78 in1008.5 mb 0.00 in0.0 mm 0.00 in0.0 mm 0.00 in0.0 mm
12:20 AM 58.7°F14.8°C 48.2°F9.0°C 68% 4.7 mph NW7.6 kmh NW 8.3 mph13.4 kmh 29.78 in1008.5 mb 0.00 in0.0 mm 0.00 in0.0 mm 0.00 in0.0 mm
12:25 AM 58.7°F14.8°C 48.2°F9.0°C 68% 4.7 mph NW7.6 kmh NW 8.3 mph13.4 kmh 29.78 in1008.5 mb 0.00 in0.0 mm 0.00 in0.0 mm 0.00 in0.0 mm
12:30 AM 58.9°F14.9°C 48.4°F9.1°C 68% 4.6 mph WNW7.4 kmh WNW 7.4 mph11.9 kmh 29.78 in1008.5 mb 0.00 in0.0 mm 0.00 in0.0 mm 0.00 in0.0 mm
12:35 AM 58.9°F14.9°C 48.4°F9.1°C 68% 4.1 mph NW6.6 kmh NW 8.0 mph12.9 kmh 29.78 in1008.5 mb 0.00 in0.0 mm 0.00 in0.0 mm 0.00 in0.0 mm
12:40 AM 59.1°F15.1°C 48.5°F9.2°C 68% 2.4 mph NW3.9 kmh NW 8.0 mph12.9 kmh 29.78 in1008.5 mb 0.00 in0.0 mm 0.00 in0.0 mm 0.00 in0.0 mm
12:45 AM 59.1°F15.1°C 48.5°F9.2°C 68% 2.2 mph NW3.5 kmh NW 5.7 mph9.2 kmh 29.78 in1008.5 mb 0.00 in0.0 mm 0.00 in0.0 mm 0.00 in0.0 mm
12:50 AM 59.1°F15.1°C 48.9°F9.4°C 69% 3.6 mph NW5.8 kmh NW 5.7 mph9.2 kmh 29.78 in1008.5 mb 0.00 in0.0 mm 0.00 in0.0 mm 0.00 in0.0 mm
12:55 AM 59.3°F15.2°C 49.1°F9.5°C 69% 4.5 mph NW7.2 kmh NW 7.4 mph11.9 kmh 29.78 in1008.5 mb 0.00 in0.0 mm 0.00 in0.0 mm 0.00 in0.0 mm
01:00 AM 59.3°F15.2°C 49.1°F9.5°C 69% 4.1 mph NW6.6 kmh NW 7.4 mph11.9 kmh 29.78 in1008.5 mb 0.00 in0.0 mm 0.00 in0.0 mm 0.00 in0.0 mm
01:05 AM 59.3°F15.2°C 49.1°F9.5°C 69% 3.4 mph NW5.5 kmh NW 4.8 mph7.7 kmh 29.78 in1008.5 mb 0.00 in0.0 mm 0.00 in0.0 mm 0.00 in0.0 mm
01:10 AM 59.3°F15.2°C 49.1°F9.5°C 69% 3.4 mph NW5.5 kmh NW 5.7 mph9.2 kmh 29.75 in1007.5 mb 0.00 in0.0 mm 0.00 in0.0 mm 0.00 in0.0 mm
01:15 AM 59.3°F15.2°C 49.1°F9.5°C 69% 3.6 mph NW5.8 kmh NW 5.7 mph9.2 kmh 29.75 in1007.5 mb 0.00 in0.0 mm 0.00 in0.0 mm 0.00 in0.0 mm
01:20 AM 59.3°F15.2°C 49.1°F9.5°C 69% 3.8 mph NW6.1 kmh NW 5.7 mph9.2 kmh 29.78 in1008.5 mb 0.00 in0.0 mm 0.00 in0.0 mm 0.00 in0.0 mm
01:25 AM 59.3°F15.2°C 49.1°F9.5°C 69% 3.7 mph NW6.0 kmh NW 4.8 mph7.7 kmh 29.78 in1008.5 mb 0.00 in0.0 mm 0.00 in0.0 mm 0.00 in0.0 mm
01:30 AM 59.3°F15.2°C 49.1°F9.5°C 69% 2.6 mph NW4.2 kmh NW 4.5 mph7.2 kmh 29.78 in1008.5 mb 0.00 in0.0 mm 0.00 in0.0 mm 0.00 in0.0 mm
01:35 AM 59.1°F15.1°C 48.9°F9.4°C 69% 1.6 mph WNW2.6 kmh WNW 4.5 mph7.2 kmh 29.75 in1007.5 mb 0.00 in0.0 mm 0.00 in0.0 mm 0.00 in0.0 mm
01:40 AM 59.1°F15.1°C 49.3°F9.6°C 70% 2.8 mph NW4.5 kmh NW 5.7 mph9.2 kmh 29.75 in1007.5 mb 0.00 in0.0 mm 0.00 in0.0 mm 0.00 in0.0 mm
01:45 AM 59.1°F15.1°C 49.3°F9.6°C 70% 3.7 mph WNW6.0 kmh WNW 5.7 mph9.2 kmh 29.75 in1007.5 mb 0.00 in0.0 mm 0.00 in0.0 mm 0.00 in0.0 mm
01:50 AM 59.1°F15.1°C 49.3°F9.6°C 70% 4.0 mph WNW6.4 kmh WNW 7.1 mph11.4 kmh 29.75 in1007.5 mb 0.00 in0.0 mm 0.00 in0.0 mm 0.00 in0.0 mm
01:55 AM 59.1°F15.1°C 49.3°F9.6°C 70% 4.6 mph WNW7.4 kmh WNW 7.1 mph11.4 kmh 29.75 in1007.5 mb 0.00 in0.0 mm 0.00 in0.0 mm 0.00 in0.0 mm
02:00 AM 59.1°F15.1°C 49.3°F9.6°C 70% 4.8 mph WNW7.7 kmh WNW 7.1 mph11.4 kmh 29.75 in1007.5 mb 0.00 in0.0 mm 0.00 in0.0 mm 0.00 in0.0 mm
02:05 AM 59.3°F15.2°C 49.9°F9.9°C 71% 4.5 mph WNW7.2 kmh WNW 6.5 mph10.5 kmh 29.75 in1007.5 mb 0.00 in0.0 mm 0.00 in0.0 mm 0.00 in0.0 mm
02:10 AM 59.3°F15.2°C 49.9°F9.9°C 71% 4.5 mph WNW7.2 kmh WNW 6.5 mph10.5 kmh 29.75 in1007.5 mb 0.00 in0.0 mm 0.00 in0.0 mm 0.00 in0.0 mm
02:15 AM 59.5°F15.3°C 50.0°F10.0°C 71% 3.4 mph WNW5.5 kmh WNW 5.7 mph9.2 kmh 29.75 in1007.5 mb 0.00 in0.0 mm 0.00 in0.0 mm 0.00 in0.0 mm
02:20 AM 59.5°F15.3°C 50.0°F10.0°C 71% 2.9 mph WNW4.7 kmh WNW 4.8 mph7.7 kmh 29.75 in1007.5 mb 0.00 in0.0 mm 0.00 in0.0 mm 0.00 in0.0 mm
02:25 AM 59.5°F15.3°C 50.0°F10.0°C 71% 3.8 mph WNW6.1 kmh WNW 8.3 mph13.4 kmh 29.75 in1007.5 mb 0.00 in0.0 mm 0.00 in0.0 mm 0.00 in0.0 mm
02:30 AM 59.6°F15.3°C 50.2°F10.1°C 71% 5.5 mph WNW8.9 kmh WNW 8.3 mph13.4 kmh 29.75 in1007.5 mb 0.00 in0.0 mm 0.00 in0.0 mm 0.00 in0.0 mm
02:35 AM 59.6°F15.3°C 50.2°F10.1°C 71% 5.8 mph WNW9.3 kmh WNW 8.0 mph12.9 kmh 29.75 in1007.5 mb 0.00 in0.0 mm 0.00 in0.0 mm 0.00 in0.0 mm
02:40 AM 59.6°F15.3°C 50.2°F10.1°C 71% 5.9 mph WNW9.5 kmh WNW 10.7 mph17.2 kmh 29.75 in1007.5 mb 0.00 in0.0 mm 0.00 in0.0 mm 0.00 in0.0 mm
02:45 AM 59.6°F15.3°C 50.2°F10.1°C 71% 6.2 mph NW10.0 kmh NW 10.7 mph17.2 kmh 29.75 in1007.5 mb 0.00 in0.0 mm 0.00 in0.0 mm 0.00 in0.0 mm
02:50 AM 59.6°F15.3°C 50.2°F10.1°C 71% 5.1 mph NW8.2 kmh NW 8.0 mph12.9 kmh 29.78 in1008.5 mb 0.00 in0.0 mm 0.00 in0.0 mm 0.00 in0.0 mm
02:55 AM 59.8°F15.4°C 50.4°F10.2°C 71% 4.9 mph NW7.9 kmh NW 7.7 mph12.4 kmh 29.78 in1008.5 mb 0.00 in0.0 mm 0.00 in0.0 mm 0.00 in0.0 mm
03:00 AM 59.8°F15.4°C 50.4°F10.2°C 71% 5.1 mph NW8.2 kmh NW 7.7 mph12.4 kmh 29.78 in1008.5 mb 0.00 in0.0 mm 0.00 in0.0 mm 0.00 in0.0 mm
03:05 AM 59.8°F15.4°C 50.4°F10.2°C 71% 5.3 mph NW8.5 kmh NW 7.4 mph11.9 kmh 29.78 in1008.5 mb 0.00 in0.0 mm 0.00 in0.0 mm 0.00 in0.0 mm
03:10 AM 59.8°F15.4°C 50.4°F10.2°C 71% 4.9 mph NW7.9 kmh NW 7.4 mph11.9 kmh 29.75 in1007.5 mb 0.00 in0.0 mm 0.00 in0.0 mm 0.00 in0.0 mm
03:15 AM 59.8°F15.4°C 50.4°F10.2°C 71% 4.5 mph WNW7.2 kmh WNW 8.3 mph13.4 kmh 29.75 in1007.5 mb 0.00 in0.0 mm 0.00 in0.0 mm 0.00 in0.0 mm
03:20 AM 59.8°F15.4°C 50.4°F10.2°C 71% 4.6 mph NW7.4 kmh NW 8.3 mph13.4 kmh 29.78 in1008.5 mb 0.00 in0.0 mm 0.00 in0.0 mm 0.00 in0.0 mm
03:25 AM 59.6°F15.3°C 49.8°F9.9°C 70% 4.6 mph NW7.4 kmh NW 9.8 mph15.8 kmh 29.78 in1008.5 mb 0.00 in0.0 mm 0.00 in0.0 mm 0.00 in0.0 mm
03:30 AM 59.6°F15.3°C 49.8°F9.9°C 70% 6.9 mph WNW11.1 kmh WNW 13.1 mph21.1 kmh 29.78 in1008.5 mb 0.00 in0.0 mm 0.00 in0.0 mm 0.00 in0.0 mm
03:35 AM 59.8°F15.4°C 50.0°F10.0°C 70% 7.2 mph WNW11.6 kmh WNW 13.1 mph21.1 kmh 29.75 in1007.5 mb 0.00 in0.0 mm 0.00 in0.0 mm 0.00 in0.0 mm
03:40 AM 59.6°F15.3°C 49.4°F9.7°C 69% 5.4 mph WNW8.7 kmh WNW 10.7 mph17.2 kmh 29.75 in1007.5 mb 0.00 in0.0 mm 0.00 in0.0 mm 0.00 in0.0 mm
03:45 AM 59.6°F15.3°C 49.4°F9.7°C 69% 5.3 mph WNW8.5 kmh WNW 7.4 mph11.9 kmh 29.75 in1007.5 mb 0.00 in0.0 mm 0.00 in0.0 mm 0.00 in0.0 mm
03:50 AM 59.6°F15.3°C 49.4°F9.7°C 69% 5.9 mph NW9.5 kmh NW 11.3 mph18.2 kmh 29.75 in1007.5 mb 0.00 in0.0 mm 0.00 in0.0 mm 0.00 in0.0 mm
03:55 AM 59.6°F15.3°C 49.1°F9.5°C 68% 5.5 mph NW8.9 kmh NW 11.3 mph18.2 kmh 29.75 in1007.5 mb 0.00 in0.0 mm 0.00 in0.0 mm 0.00 in0.0 mm
04:00 AM 59.5°F15.3°C 49.3°F9.6°C 69% 4.6 mph WNW7.4 kmh WNW 5.7 mph9.2 kmh 29.75 in1007.5 mb 0.00 in0.0 mm 0.00 in0.0 mm 0.00 in0.0 mm
04:05 AM 59.6°F15.3°C 49.1°F9.5°C 68% 5.4 mph WNW8.7 kmh WNW 10.7 mph17.2 kmh 29.75 in1007.5 mb 0.00 in0.0 mm 0.00 in0.0 mm 0.00 in0.0 mm
04:10 AM 59.6°F15.3°C 49.1°F9.5°C 68% 5.9 mph WNW9.5 kmh WNW 10.7 mph17.2 kmh 29.75 in1007.5 mb 0.00 in0.0 mm 0.00 in0.0 mm 0.00 in0.0 mm
04:15 AM 59.6°F15.3°C 49.1°F9.5°C 68% 5.5 mph WNW8.9 kmh WNW 10.4 mph16.7 kmh 29.75 in1007.5 mb 0.00 in0.0 mm 0.00 in0.0 mm 0.00 in0.0 mm
04:20 AM 59.6°F15.3°C 48.7°F9.3°C 67% 4.6 mph WNW7.4 kmh WNW 8.6 mph13.8 kmh 29.78 in1008.5 mb 0.00 in0.0 mm 0.00 in0.0 mm 0.00 in0.0 mm
04:25 AM 59.6°F15.3°C 48.7°F9.3°C 67% 4.9 mph WNW7.9 kmh WNW 7.7 mph12.4 kmh 29.78 in1008.5 mb 0.00 in0.0 mm 0.00 in0.0 mm 0.00 in0.0 mm
04:35 AM 59.8°F15.4°C 48.4°F9.1°C 66% 7.6 mph W12.2 kmh W 12.0 mph19.3 kmh 29.78 in1008.5 mb 0.00 in0.0 mm 0.00 in0.0 mm 0.00 in0.0 mm
04:40 AM 60.0°F15.6°C 48.6°F9.2°C 66% 7.8 mph W12.6 kmh W 10.7 mph17.2 kmh 29.78 in1008.5 mb 0.00 in0.0 mm 0.00 in0.0 mm 0.00 in0.0 mm
04:45 AM 60.2°F15.7°C 48.8°F9.3°C 66% 8.3 mph W13.4 kmh W 10.7 mph17.2 kmh 29.78 in1008.5 mb 0.00 in0.0 mm 0.00 in0.0 mm 0.00 in0.0 mm
04:50 AM 60.2°F15.7°C 48.8°F9.3°C 66% 7.8 mph W12.6 kmh W 11.6 mph18.7 kmh 29.78 in1008.5 mb 0.00 in0.0 mm 0.00 in0.0 mm 0.00 in0.0 mm
04:55 AM 60.3°F15.7°C 49.3°F9.6°C 67% 8.6 mph WSW13.8 kmh WSW 13.1 mph21.1 kmh 29.78 in1008.5 mb 0.00 in0.0 mm 0.00 in0.0 mm 0.00 in0.0 mm
05:00 AM 60.3°F15.7°C 49.3°F9.6°C 67% 9.1 mph WSW14.6 kmh WSW 13.1 mph21.1 kmh 29.78 in1008.5 mb 0.00 in0.0 mm 0.00 in0.0 mm 0.00 in0.0 mm
05:05 AM 60.3°F15.7°C 49.3°F9.6°C 67% 9.4 mph W15.1 kmh W 14.0 mph22.5 kmh 29.78 in1008.5 mb 0.00 in0.0 mm 0.00 in0.0 mm 0.00 in0.0 mm
05:10 AM 60.3°F15.7°C 49.3°F9.6°C 67% 9.0 mph W14.5 kmh W 14.0 mph22.5 kmh 29.78 in1008.5 mb 0.00 in0.0 mm 0.00 in0.0 mm 0.00 in0.0 mm
05:15 AM 60.2°F15.7°C 49.6°F9.8°C 68% 4.6 mph W7.4 kmh W 10.1 mph16.3 kmh 29.78 in1008.5 mb 0.00 in0.0 mm 0.00 in0.0 mm 0.00 in0.0 mm
05:20 AM 60.2°F15.7°C 49.2°F9.6°C 67% 3.5 mph WNW5.6 kmh WNW 6.5 mph10.5 kmh 29.78 in1008.5 mb 0.00 in0.0 mm 0.00 in0.0 mm 0.00 in0.0 mm
05:25 AM 60.0°F15.6°C 49.4°F9.7°C 68% 5.0 mph WSW8.0 kmh WSW 10.4 mph16.7 kmh 29.78 in1008.5 mb 0.00 in0.0 mm 0.00 in0.0 mm 0.00 in0.0 mm
05:30 AM 59.8°F15.4°C 49.2°F9.6°C 68% 4.3 mph WSW6.9 kmh WSW 10.4 mph16.7 kmh 29.78 in1008.5 mb 0.00 in0.0 mm 0.00 in0.0 mm 0.00 in0.0 mm
05:35 AM 59.6°F15.3°C 49.4°F9.7°C 69% 3.5 mph SSW5.6 kmh SSW 7.7 mph12.4 kmh 29.78 in1008.5 mb 0.00 in0.0 mm 0.00 in0.0 mm 0.00 in0.0 mm
05:40 AM 59.3°F15.2°C 49.1°F9.5°C 69% 3.8 mph SSW6.1 kmh SSW 7.7 mph12.4 kmh 29.78 in1008.5 mb 0.00 in0.0 mm 0.00 in0.0 mm 0.00 in0.0 mm
05:45 AM 59.1°F15.1°C 48.9°F9.4°C 69% 3.7 mph SSW6.0 kmh SSW 7.7 mph12.4 kmh 29.78 in1008.5 mb 0.00 in0.0 mm 0.00 in0.0 mm 0.00 in0.0 mm
05:50 AM 58.5°F14.7°C 48.8°F9.3°C 70% 3.8 mph SSW6.1 kmh SSW 5.1 mph8.2 kmh 29.78 in1008.5 mb 0.00 in0.0 mm 0.00 in0.0 mm 0.00 in0.0 mm
05:55 AM 58.4°F14.7°C 48.6°F9.2°C 70% 3.5 mph SSW5.6 kmh SSW 4.8 mph7.7 kmh 29.78 in1008.5 mb 0.00 in0.0 mm 0.00 in0.0 mm 0.00 in0.0 mm
06:00 AM 58.2°F14.6°C 48.8°F9.3°C 71% 3.5 mph SSW5.6 kmh SSW 5.4 mph8.7 kmh 29.78 in1008.5 mb 0.00 in0.0 mm 0.00 in0.0 mm 0.00 in0.0 mm
06:05 AM 58.7°F14.8°C 49.7°F9.8°C 72% 4.3 mph SSW6.9 kmh SSW 6.5 mph10.5 kmh 29.78 in1008.5 mb 0.00 in0.0 mm 0.00 in0.0 mm 0.00 in0.0 mm
06:10 AM 59.1°F15.1°C 50.1°F10.1°C 72% 4.8 mph SSW7.7 kmh SSW 6.5 mph10.5 kmh 29.78 in1008.5 mb 0.00 in0.0 mm 0.00 in0.0 mm 0.00 in0.0 mm
06:15 AM 59.1°F15.1°C 50.1°F10.1°C 72% 4.6 mph SSW7.4 kmh SSW 6.5 mph10.5 kmh 29.78 in1008.5 mb 0.00 in0.0 mm 0.00 in0.0 mm 0.00 in0.0 mm
06:20 AM 59.6°F15.3°C 50.2°F10.1°C 71% 4.1 mph WSW6.6 kmh WSW 5.7 mph9.2 kmh 29.78 in1008.5 mb 0.00 in0.0 mm 0.00 in0.0 mm 0.00 in0.0 mm
06:25 AM 59.8°F15.4°C 50.4°F10.2°C 71% 4.1 mph W6.6 kmh W 7.1 mph11.4 kmh 29.78 in1008.5 mb 0.00 in0.0 mm 0.00 in0.0 mm 0.00 in0.0 mm
06:30 AM 60.0°F15.6°C 50.6°F10.3°C 71% 5.0 mph WSW8.0 kmh WSW 7.1 mph11.4 kmh 29.78 in1008.5 mb 0.00 in0.0 mm 0.00 in0.0 mm 0.00 in0.0 mm
06:35 AM 60.0°F15.6°C 50.6°F10.3°C 71% 6.2 mph W10.0 kmh W 10.4 mph16.7 kmh 29.78 in1008.5 mb 0.00 in0.0 mm 0.00 in0.0 mm 0.00 in0.0 mm
06:40 AM 60.2°F15.7°C 50.3°F10.2°C 70% 6.7 mph W10.8 kmh W 10.4 mph16.7 kmh 29.78 in1008.5 mb 0.00 in0.0 mm 0.00 in0.0 mm 0.00 in0.0 mm
06:45 AM 60.0°F15.6°C 50.2°F10.1°C 70% 6.6 mph WSW10.6 kmh WSW 9.5 mph15.3 kmh 29.78 in1008.5 mb 0.00 in0.0 mm 0.00 in0.0 mm 0.00 in0.0 mm
06:50 AM 60.0°F15.6°C 50.6°F10.3°C 71% 6.1 mph WSW9.8 kmh WSW 9.5 mph15.3 kmh 29.78 in1008.5 mb 0.00 in0.0 mm 0.00 in0.0 mm 0.00 in0.0 mm
06:55 AM 60.3°F15.7°C 50.9°F10.5°C 71% 6.2 mph WSW10.0 kmh WSW 11.6 mph18.7 kmh 29.78 in1008.5 mb 0.00 in0.0 mm 0.00 in0.0 mm 0.00 in0.0 mm
07:00 AM 60.7°F15.9°C 51.2°F10.7°C 71% 7.7 mph WSW12.4 kmh WSW 11.6 mph18.7 kmh 29.78 in1008.5 mb 0.00 in0.0 mm 0.00 in0.0 mm 0.00 in0.0 mm
07:05 AM 60.9°F16.1°C 51.4°F10.8°C 71% 7.7 mph WSW12.4 kmh WSW 9.8 mph15.8 kmh 29.81 in1009.5 mb 0.00 in0.0 mm 0.00 in0.0 mm 0.00 in0.0 mm
07:10 AM 61.3°F16.3°C 51.8°F11.0°C 71% 6.8 mph WSW10.9 kmh WSW 9.5 mph15.3 kmh 29.81 in1009.5 mb 0.00 in0.0 mm 0.00 in0.0 mm 0.00 in0.0 mm
07:15 AM 61.6°F16.4°C 52.1°F11.2°C 71% 6.7 mph WSW10.8 kmh WSW 8.6 mph13.8 kmh 29.81 in1009.5 mb 0.00 in0.0 mm 0.00 in0.0 mm 0.00 in0.0 mm
07:20 AM 62.2°F16.8°C 52.2°F11.2°C 70% 6.2 mph W10.0 kmh W 8.6 mph13.8 kmh 29.81 in1009.5 mb 0.00 in0.0 mm 0.00 in0.0 mm 0.00 in0.0 mm
07:25 AM 62.5°F16.9°C 52.6°F11.4°C 70% 7.7 mph W12.4 kmh W 15.8 mph25.4 kmh 29.81 in1009.5 mb 0.00 in0.0 mm 0.00 in0.0 mm 0.00 in0.0 mm
07:30 AM 62.9°F17.2°C 52.5°F11.4°C 69% 9.3 mph W15.0 kmh W 15.8 mph25.4 kmh 29.81 in1009.5 mb 0.00 in0.0 mm 0.00 in0.0 mm 0.00 in0.0 mm
07:35 AM 63.2°F17.3°C 52.5°F11.4°C 68% 7.9 mph WSW12.7 kmh WSW 14.3 mph23.0 kmh 29.81 in1009.5 mb 0.00 in0.0 mm 0.00 in0.0 mm 0.00 in0.0 mm
07:40 AM 63.4°F17.4°C 52.7°F11.5°C 68% 6.5 mph WSW10.5 kmh WSW 8.3 mph13.4 kmh 29.81 in1009.5 mb 0.00 in0.0 mm 0.00 in0.0 mm 0.00 in0.0 mm
07:45 AM 64.0°F17.8°C 52.8°F11.6°C 67% 6.6 mph WSW10.6 kmh WSW 12.2 mph19.6 kmh 29.81 in1009.5 mb 0.00 in0.0 mm 0.00 in0.0 mm 0.00 in0.0 mm
07:50 AM 64.0°F17.8°C 52.8°F11.6°C 67% 7.3 mph WSW11.7 kmh WSW 12.2 mph19.6 kmh 29.84 in1010.5 mb 0.00 in0.0 mm 0.00 in0.0 mm 0.00 in0.0 mm
07:55 AM 64.1°F17.8°C 52.9°F11.6°C 67% 7.4 mph WSW11.9 kmh WSW 11.3 mph18.2 kmh 29.84 in1010.5 mb 0.00 in0.0 mm 0.00 in0.0 mm 0.00 in0.0 mm
08:00 AM 64.3°F17.9°C 52.7°F11.5°C 66% 8.7 mph WSW14.0 kmh WSW 14.0 mph22.5 kmh 29.84 in1010.5 mb 0.00 in0.0 mm 0.00 in0.0 mm 0.00 in0.0 mm
08:05 AM 64.3°F17.9°C 52.7°F11.5°C 66% 8.5 mph SW13.7 kmh SW 14.0 mph22.5 kmh 29.81 in1009.5 mb 0.00 in0.0 mm 0.00 in0.0 mm 0.00 in0.0 mm
08:10 AM 64.7°F18.2°C 52.6°F11.4°C 65% 7.0 mph SW11.3 kmh SW 9.5 mph15.3 kmh 29.81 in1009.5 mb 0.00 in0.0 mm 0.00 in0.0 mm 0.00 in0.0 mm
08:15 AM 64.8°F18.2°C 52.8°F11.6°C 65% 7.9 mph SW12.7 kmh SW 10.4 mph16.7 kmh 29.81 in1009.5 mb 0.00 in0.0 mm 0.00 in0.0 mm 0.00 in0.0 mm
08:20 AM 64.7°F18.2°C 52.2°F11.2°C 64% 8.9 mph WSW14.3 kmh WSW 16.4 mph26.4 kmh 29.84 in1010.5 mb 0.00 in0.0 mm 0.00 in0.0 mm 0.00 in0.0 mm
08:25 AM 64.5°F18.1°C 52.0°F11.1°C 64% 8.8 mph WSW14.2 kmh WSW 16.4 mph26.4 kmh 29.84 in1010.5 mb 0.00 in0.0 mm 0.00 in0.0 mm 0.00 in0.0 mm
08:30 AM 64.1°F17.8°C 51.7°F10.9°C 64% 8.3 mph W13.4 kmh W 10.4 mph16.7 kmh 29.84 in1010.5 mb 0.00 in0.0 mm 0.00 in0.0 mm 0.00 in0.0 mm
08:35 AM 63.8°F17.7°C 50.9°F10.5°C 63% 8.0 mph WSW12.9 kmh WSW 10.4 mph16.7 kmh 29.81 in1009.5 mb 0.00 in0.0 mm 0.00 in0.0 mm 0.00 in0.0 mm
08:40 AM 63.6°F17.6°C 51.2°F10.7°C 64% 6.2 mph SW10.0 kmh SW 8.0 mph12.9 kmh 29.81 in1009.5 mb 0.00 in0.0 mm 0.00 in0.0 mm 0.00 in0.0 mm
08:45 AM 63.6°F17.6°C 51.2°F10.7°C 64% 5.7 mph WSW9.2 kmh WSW 8.3 mph13.4 kmh 29.81 in1009.5 mb 0.00 in0.0 mm 0.00 in0.0 mm 0.00 in0.0 mm
08:50 AM 64.0°F17.8°C 51.5°F10.8°C 64% 7.2 mph W11.6 kmh W 10.7 mph17.2 kmh 29.84 in1010.5 mb 0.00 in0.0 mm 0.00 in0.0 mm 0.00 in0.0 mm
08:55 AM 64.5°F18.1°C 51.6°F10.9°C 63% 7.2 mph W11.6 kmh W 10.7 mph17.2 kmh 29.84 in1010.5 mb 0.00 in0.0 mm 0.00 in0.0 mm 0.00 in0.0 mm
09:00 AM 65.0°F18.3°C 51.7°F10.9°C 62% 7.7 mph WSW12.4 kmh WSW 13.7 mph22.0 kmh 29.84 in1010.5 mb 0.00 in0.0 mm 0.00 in0.0 mm 0.00 in0.0 mm
09:05 AM 66.1°F18.9°C 52.7°F11.5°C 62% 7.5 mph WSW12.1 kmh WSW 13.7 mph22.0 kmh 29.84 in1010.5 mb 0.00 in0.0 mm 0.00 in0.0 mm 0.00 in0.0 mm
09:10 AM 66.7°F19.3°C 53.2°F11.8°C 62% 7.1 mph WSW11.4 kmh WSW 13.7 mph22.0 kmh 29.84 in1010.5 mb 0.00 in0.0 mm 0.00 in0.0 mm 0.00 in0.0 mm
09:15 AM 67.0°F19.4°C 52.7°F11.5°C 60% 6.2 mph WSW10.0 kmh WSW 11.3 mph18.2 kmh 29.84 in1010.5 mb 0.00 in0.0 mm 0.00 in0.0 mm 0.00 in0.0 mm
09:20 AM 66.8°F19.3°C 52.0°F11.1°C 59% 7.8 mph WSW12.6 kmh WSW 14.6 mph23.5 kmh 29.84 in1010.5 mb 0.00 in0.0 mm 0.00 in0.0 mm 0.00 in0.0 mm
09:25 AM 67.0°F19.4°C 52.2°F11.2°C 59% 8.8 mph W14.2 kmh W 14.6 mph23.5 kmh 29.84 in1010.5 mb 0.00 in0.0 mm 0.00 in0.0 mm 0.00 in0.0 mm
09:30 AM 67.2°F19.6°C 51.9°F11.1°C 58% 7.9 mph WSW12.7 kmh WSW 13.4 mph21.6 kmh 29.84 in1010.5 mb 0.00 in0.0 mm 0.00 in0.0 mm 0.00 in0.0 mm
09:35 AM 67.4°F19.7°C 52.1°F11.2°C 58% 6.8 mph SW10.9 kmh SW 13.4 mph21.6 kmh 29.84 in1010.5 mb 0.00 in0.0 mm 0.00 in0.0 mm 0.00 in0.0 mm
09:40 AM 67.9°F19.9°C 52.1°F11.2°C 57% 6.9 mph WSW11.1 kmh WSW 10.1 mph16.3 kmh 29.84 in1010.5 mb 0.00 in0.0 mm 0.00 in0.0 mm 0.00 in0.0 mm
09:45 AM 67.9°F19.9°C 51.6°F10.9°C 56% 8.6 mph SW13.8 kmh SW 14.6 mph23.5 kmh 29.84 in1010.5 mb 0.00 in0.0 mm 0.00 in0.0 mm 0.00 in0.0 mm
09:50 AM 67.9°F19.9°C 51.6°F10.9°C 56% 8.6 mph SW13.8 kmh SW 14.6 mph23.5 kmh 29.84 in1010.5 mb 0.00 in0.0 mm 0.00 in0.0 mm 0.00 in0.0 mm
09:55 AM 68.4°F20.2°C 52.1°F11.2°C 56% 7.2 mph SW11.6 kmh SW 14.6 mph23.5 kmh 29.84 in1010.5 mb 0.00 in0.0 mm 0.00 in0.0 mm 0.00 in0.0 mm
10:00 AM 68.8°F20.4°C 52.0°F11.1°C 55% 6.8 mph WSW10.9 kmh WSW 13.1 mph21.1 kmh 29.84 in1010.5 mb 0.00 in0.0 mm 0.00 in0.0 mm 0.00 in0.0 mm
10:05 AM 68.8°F20.4°C 52.0°F11.1°C 55% 7.3 mph SW11.7 kmh SW 13.1 mph21.1 kmh 29.84 in1010.5 mb 0.00 in0.0 mm 0.00 in0.0 mm 0.00 in0.0 mm
10:10 AM 69.2°F20.7°C 51.8°F11.0°C 54% 8.8 mph SW14.2 kmh SW 14.6 mph23.5 kmh 29.84 in1010.5 mb 0.00 in0.0 mm 0.00 in0.0 mm 0.00 in0.0 mm
10:15 AM 69.3°F20.7°C 51.5°F10.8°C 53% 8.3 mph SW13.4 kmh SW 14.6 mph23.5 kmh 29.84 in1010.5 mb 0.00 in0.0 mm 0.00 in0.0 mm 0.00 in0.0 mm
10:20 AM 69.3°F20.7°C 51.5°F10.8°C 53% 8.3 mph WSW13.4 kmh WSW 13.4 mph21.6 kmh 29.84 in1010.5 mb 0.00 in0.0 mm 0.00 in0.0 mm 0.00 in0.0 mm
10:25 AM 68.8°F20.4°C 51.0°F10.6°C 53% 9.9 mph W15.9 kmh W 14.3 mph23.0 kmh 29.84 in1010.5 mb 0.00 in0.0 mm 0.00 in0.0 mm 0.00 in0.0 mm
10:30 AM 68.4°F20.2°C 51.1°F10.6°C 54% 9.2 mph WSW14.8 kmh WSW 14.3 mph23.0 kmh 29.84 in1010.5 mb 0.00 in0.0 mm 0.00 in0.0 mm 0.00 in0.0 mm
10:35 AM 68.3°F20.2°C 51.0°F10.6°C 54% 8.9 mph WSW14.3 kmh WSW 12.8 mph20.6 kmh 29.84 in1010.5 mb 0.00 in0.0 mm 0.00 in0.0 mm 0.00 in0.0 mm
10:40 AM 68.1°F20.1°C 50.8°F10.4°C 54% 8.9 mph WSW14.3 kmh WSW 11.3 mph18.2 kmh 29.84 in1010.5 mb 0.00 in0.0 mm 0.00 in0.0 mm 0.00 in0.0 mm
10:45 AM 67.4°F19.7°C 50.1°F10.1°C 54% 9.5 mph WSW15.3 kmh WSW 11.6 mph18.7 kmh 29.84 in1010.5 mb 0.00 in0.0 mm 0.00 in0.0 mm 0.00 in0.0 mm
10:50 AM 66.7°F19.3°C 50.9°F10.5°C 57% 11.2 mph WSW18.0 kmh WSW 17.0 mph27.4 kmh 29.84 in1010.5 mb 0.00 in0.0 mm 0.00 in0.0 mm 0.00 in0.0 mm
10:55 AM 65.6°F18.7°C 50.9°F10.5°C 59% 11.1 mph WSW17.9 kmh WSW 17.0 mph27.4 kmh 29.84 in1010.5 mb 0.00 in0.0 mm 0.00 in0.0 mm 0.00 in0.0 mm
11:00 AM 64.1°F17.8°C 51.3°F10.7°C 63% 11.3 mph W18.2 kmh W 26.2 mph42.2 kmh 29.84 in1010.5 mb 0.00 in0.0 mm 0.00 in0.0 mm 0.00 in0.0 mm
11:05 AM 63.0°F17.2°C 51.1°F10.6°C 65% 11.0 mph WNW17.7 kmh WNW 26.2 mph42.2 kmh 29.87 in1011.5 mb 0.00 in0.0 mm 0.00 in0.0 mm 0.00 in0.0 mm
11:10 AM 62.2°F16.8°C 51.5°F10.8°C 68% 8.8 mph WNW14.2 kmh WNW 14.0 mph22.5 kmh 29.87 in1011.5 mb 0.00 in0.0 mm 0.00 in0.0 mm 0.00 in0.0 mm
11:15 AM 62.0°F16.7°C 51.7°F10.9°C 69% 7.7 mph W12.4 kmh W 10.4 mph16.7 kmh 29.87 in1011.5 mb 0.00 in0.0 mm 0.00 in0.0 mm 0.00 in0.0 mm
11:20 AM 62.0°F16.7°C 51.7°F10.9°C 69% 9.9 mph W15.9 kmh W 16.1 mph25.9 kmh 29.87 in1011.5 mb 0.00 in0.0 mm 0.00 in0.0 mm 0.00 in0.0 mm
11:25 AM 61.8°F16.6°C 51.5°F10.8°C 69% 12.0 mph W19.3 kmh W 16.1 mph25.9 kmh 29.87 in1011.5 mb 0.00 in0.0 mm 0.00 in0.0 mm 0.00 in0.0 mm
11:30 AM 61.4°F16.3°C 51.2°F10.7°C 69% 11.5 mph WSW18.5 kmh WSW 16.1 mph25.9 kmh 29.87 in1011.5 mb 0.04 in1.0 mm 0.48 in12.2 mm 0.04 in1.0 mm
11:35 AM 61.4°F16.3°C 51.6°F10.9°C 70% 8.1 mph WSW13.0 kmh WSW 11.3 mph18.2 kmh 29.87 in1011.5 mb 0.04 in1.0 mm 0.00 in0.0 mm 0.04 in1.0 mm
11:40 AM 62.0°F16.7°C 52.5°F11.4°C 71% 5.9 mph W9.5 kmh W 9.5 mph15.3 kmh 29.87 in1011.5 mb 0.04 in1.0 mm 0.00 in0.0 mm 0.04 in1.0 mm
11:45 AM 62.3°F16.8°C 52.8°F11.6°C 71% 5.6 mph WSW9.0 kmh WSW 8.6 mph13.8 kmh 29.87 in1011.5 mb 0.04 in1.0 mm 0.00 in0.0 mm 0.04 in1.0 mm
11:50 AM 64.3°F17.9°C 54.7°F12.6°C 71% 5.1 mph WSW8.2 kmh WSW 8.3 mph13.4 kmh 29.87 in1011.5 mb 0.04 in1.0 mm 0.00 in0.0 mm 0.04 in1.0 mm
11:55 AM 65.2°F18.4°C 55.2°F12.9°C 70% 4.7 mph SW7.6 kmh SW 12.8 mph20.6 kmh 29.87 in1011.5 mb 0.04 in1.0 mm 0.00 in0.0 mm 0.04 in1.0 mm
12:00 PM 65.6°F18.7°C 54.7°F12.6°C 68% 5.5 mph SW8.9 kmh SW 12.8 mph20.6 kmh 29.87 in1011.5 mb 0.04 in1.0 mm 0.00 in0.0 mm 0.04 in1.0 mm
12:05 PM 65.6°F18.7°C 54.3°F12.4°C 67% 6.7 mph WSW10.8 kmh WSW 12.8 mph20.6 kmh 29.90 in1012.5 mb 0.04 in1.0 mm 0.00 in0.0 mm 0.04 in1.0 mm
12:10 PM 65.8°F18.8°C 54.1°F12.3°C 66% 6.9 mph W11.1 kmh W 11.9 mph19.2 kmh 29.90 in1012.5 mb 0.04 in1.0 mm 0.00 in0.0 mm 0.04 in1.0 mm
12:15 PM 65.6°F18.7°C 53.5°F11.9°C 65% 7.8 mph W12.6 kmh W 11.9 mph19.2 kmh 29.90 in1012.5 mb 0.04 in1.0 mm 0.00 in0.0 mm 0.04 in1.0 mm
12:20 PM 65.8°F18.8°C 53.7°F12.1°C 65% 8.2 mph W13.2 kmh W 11.6 mph18.7 kmh 29.90 in1012.5 mb 0.04 in1.0 mm 0.00 in0.0 mm 0.04 in1.0 mm
12:25 PM 65.9°F18.8°C 54.2°F12.3°C 66% 6.8 mph W10.9 kmh W 9.8 mph15.8 kmh 29.90 in1012.5 mb 0.04 in1.0 mm 0.00 in0.0 mm 0.04 in1.0 mm
12:30 PM 65.9°F18.8°C 54.2°F12.3°C 66% 5.6 mph W9.0 kmh W 8.3 mph13.4 kmh 29.90 in1012.5 mb 0.00 in0.0 mm 0.00 in0.0 mm 0.04 in1.0 mm
12:35 PM 65.4°F18.6°C 54.1°F12.3°C 67% 7.5 mph WNW12.1 kmh WNW 14.3 mph23.0 kmh 29.90 in1012.5 mb 0.00 in0.0 mm 0.00 in0.0 mm 0.04 in1.0 mm
12:40 PM 64.7°F18.2°C 54.3°F12.4°C 69% 8.2 mph WNW13.2 kmh WNW 14.3 mph23.0 kmh 29.90 in1012.5 mb 0.00 in0.0 mm 0.00 in0.0 mm 0.04 in1.0 mm
12:45 PM 64.5°F18.1°C 54.5°F12.5°C 70% 6.0 mph W9.7 kmh W 10.1 mph16.3 kmh 29.90 in1012.5 mb 0.00 in0.0 mm 0.00 in0.0 mm 0.04 in1.0 mm
12:50 PM 64.3°F17.9°C 54.3°F12.4°C 70% 4.1 mph WNW6.6 kmh WNW 5.7 mph9.2 kmh 29.87 in1011.5 mb 0.00 in0.0 mm 0.00 in0.0 mm 0.04 in1.0 mm
12:55 PM 64.3°F17.9°C 54.3°F12.4°C 70% 5.4 mph WNW8.7 kmh WNW 9.8 mph15.8 kmh 29.87 in1011.5 mb 0.00 in0.0 mm 0.00 in0.0 mm 0.04 in1.0 mm
01:00 PM 64.1°F17.8°C 54.1°F12.3°C 70% 5.7 mph W9.2 kmh W 9.8 mph15.8 kmh 29.87 in1011.5 mb 0.00 in0.0 mm 0.00 in0.0 mm 0.04 in1.0 mm
01:05 PM 64.1°F17.8°C 54.1°F12.3°C 70% 5.0 mph W8.0 kmh W 8.0 mph12.9 kmh 29.87 in1011.5 mb 0.00 in0.0 mm 0.00 in0.0 mm 0.04 in1.0 mm
01:10 PM 64.3°F17.9°C 54.3°F12.4°C 70% 4.6 mph WSW7.4 kmh WSW 7.7 mph12.4 kmh 29.87 in1011.5 mb 0.00 in0.0 mm 0.00 in0.0 mm 0.04 in1.0 mm
01:15 PM 64.5°F18.1°C 54.5°F12.5°C 70% 4.7 mph WSW7.6 kmh WSW 8.3 mph13.4 kmh 29.87 in1011.5 mb 0.00 in0.0 mm 0.00 in0.0 mm 0.04 in1.0 mm
01:20 PM 64.8°F18.2°C 54.8°F12.7°C 70% 5.9 mph W9.5 kmh W 8.3 mph13.4 kmh 29.90 in1012.5 mb 0.00 in0.0 mm 0.00 in0.0 mm 0.04 in1.0 mm
01:25 PM 65.0°F18.3°C 55.0°F12.8°C 70% 5.8 mph W9.3 kmh W 8.9 mph14.3 kmh 29.90 in1012.5 mb 0.00 in0.0 mm 0.00 in0.0 mm 0.04 in1.0 mm
01:30 PM 65.2°F18.4°C 54.8°F12.7°C 69% 7.2 mph W11.6 kmh W 12.2 mph19.6 kmh 29.90 in1012.5 mb 0.00 in0.0 mm 0.00 in0.0 mm 0.04 in1.0 mm
01:35 PM 65.0°F18.3°C 54.6°F12.6°C 69% 9.2 mph W14.8 kmh W 12.2 mph19.6 kmh 29.90 in1012.5 mb 0.00 in0.0 mm 0.00 in0.0 mm 0.04 in1.0 mm
01:40 PM 65.0°F18.3°C 55.0°F12.8°C 70% 8.3 mph W13.4 kmh W 12.2 mph19.6 kmh 29.90 in1012.5 mb 0.00 in0.0 mm 0.00 in0.0 mm 0.04 in1.0 mm
01:45 PM 65.2°F18.4°C 54.4°F12.4°C 68% 7.2 mph WSW11.6 kmh WSW 9.8 mph15.8 kmh 29.90 in1012.5 mb 0.00 in0.0 mm 0.00 in0.0 mm 0.04 in1.0 mm
01:50 PM 65.2°F18.4°C 54.4°F12.4°C 68% 7.2 mph WSW11.6 kmh WSW 11.3 mph18.2 kmh 29.90 in1012.5 mb 0.00 in0.0 mm 0.00 in0.0 mm 0.04 in1.0 mm
01:55 PM 66.3°F19.1°C 55.0°F12.8°C 67% 7.4 mph W11.9 kmh W 11.3 mph18.2 kmh 29.90 in1012.5 mb 0.00 in0.0 mm 0.00 in0.0 mm 0.04 in1.0 mm
02:00 PM 66.3°F19.1°C 55.0°F12.8°C 67% 6.6 mph W10.6 kmh W 10.7 mph17.2 kmh 29.90 in1012.5 mb 0.00 in0.0 mm 0.00 in0.0 mm 0.04 in1.0 mm
02:05 PM 66.1°F18.9°C 54.4°F12.4°C 66% 6.9 mph W11.1 kmh W 11.6 mph18.7 kmh 29.90 in1012.5 mb 0.00 in0.0 mm 0.00 in0.0 mm 0.04 in1.0 mm
02:10 PM 66.1°F18.9°C 54.4°F12.4°C 66% 7.2 mph W11.6 kmh W 11.6 mph18.7 kmh 29.90 in1012.5 mb 0.00 in0.0 mm 0.00 in0.0 mm 0.04 in1.0 mm
02:15 PM 65.9°F18.8°C 54.2°F12.3°C 66% 6.0 mph WSW9.7 kmh WSW 8.6 mph13.8 kmh 29.90 in1012.5 mb 0.00 in0.0 mm 0.00 in0.0 mm 0.04 in1.0 mm
02:20 PM 65.9°F18.8°C 54.2°F12.3°C 66% 6.7 mph WSW10.8 kmh WSW 8.9 mph14.3 kmh 29.90 in1012.5 mb 0.00 in0.0 mm 0.00 in0.0 mm 0.04 in1.0 mm
02:25 PM 65.8°F18.8°C 54.1°F12.3°C 66% 8.0 mph W12.9 kmh W 10.1 mph16.3 kmh 29.90 in1012.5 mb 0.00 in0.0 mm 0.00 in0.0 mm 0.04 in1.0 mm
02:30 PM 65.6°F18.7°C 53.9°F12.2°C 66% 8.3 mph W13.4 kmh W 10.7 mph17.2 kmh 29.90 in1012.5 mb 0.00 in0.0 mm 0.00 in0.0 mm 0.04 in1.0 mm
02:35 PM 65.6°F18.7°C 53.9°F12.2°C 66% 7.4 mph W11.9 kmh W 10.7 mph17.2 kmh 29.90 in1012.5 mb 0.00 in0.0 mm 0.00 in0.0 mm 0.04 in1.0 mm
02:40 PM 65.6°F18.7°C 53.9°F12.2°C 66% 6.8 mph W10.9 kmh W 10.7 mph17.2 kmh 29.90 in1012.5 mb 0.00 in0.0 mm 0.00 in0.0 mm 0.04 in1.0 mm
02:45 PM 65.6°F18.7°C 53.9°F12.2°C 66% 7.8 mph W12.6 kmh W 14.0 mph22.5 kmh 29.90 in1012.5 mb 0.00 in0.0 mm 0.00 in0.0 mm 0.04 in1.0 mm
02:50 PM 65.6°F18.7°C 53.9°F12.2°C 66% 8.6 mph W13.8 kmh W 14.0 mph22.5 kmh 29.90 in1012.5 mb 0.00 in0.0 mm 0.00 in0.0 mm 0.04 in1.0 mm
02:55 PM 65.6°F18.7°C 53.9°F12.2°C 66% 8.2 mph W13.2 kmh W 12.8 mph20.6 kmh 29.90 in1012.5 mb 0.00 in0.0 mm 0.00 in0.0 mm 0.04 in1.0 mm
03:00 PM 65.6°F18.7°C 53.9°F12.2°C 66% 8.6 mph W13.8 kmh W 12.8 mph20.6 kmh 29.90 in1012.5 mb 0.00 in0.0 mm 0.00 in0.0 mm 0.04 in1.0 mm
03:05 PM 65.9°F18.8°C 53.8°F12.1°C 65% 7.4 mph W11.9 kmh W 11.3 mph18.2 kmh 29.90 in1012.5 mb 0.00 in0.0 mm 0.00 in0.0 mm 0.04 in1.0 mm
03:10 PM 66.1°F18.9°C 54.0°F12.2°C 65% 6.9 mph WSW11.1 kmh WSW 11.3 mph18.2 kmh 29.90 in1012.5 mb 0.00 in0.0 mm 0.00 in0.0 mm 0.04 in1.0 mm
03:15 PM 66.5°F19.2°C 54.3°F12.4°C 65% 6.1 mph WSW9.8 kmh WSW 11.3 mph18.2 kmh 29.90 in1012.5 mb 0.00 in0.0 mm 0.00 in0.0 mm 0.04 in1.0 mm
03:20 PM 66.7°F19.3°C 54.5°F12.5°C 65% 6.8 mph W10.9 kmh W 11.3 mph18.2 kmh 29.90 in1012.5 mb 0.00 in0.0 mm 0.00 in0.0 mm 0.04 in1.0 mm
03:25 PM 66.5°F19.2°C 53.9°F12.2°C 64% 8.9 mph W14.3 kmh W 11.3 mph18.2 kmh 29.90 in1012.5 mb 0.00 in0.0 mm 0.00 in0.0 mm 0.04 in1.0 mm
03:30 PM 66.7°F19.3°C 54.1°F12.3°C 64% 9.2 mph W14.8 kmh W 15.2 mph24.5 kmh 29.90 in1012.5 mb 0.00 in0.0 mm 0.00 in0.0 mm 0.04 in1.0 mm
03:35 PM 67.0°F19.4°C 54.4°F12.4°C 64% 9.0 mph W14.5 kmh W 15.2 mph24.5 kmh 29.90 in1012.5 mb 0.00 in0.0 mm 0.00 in0.0 mm 0.04 in1.0 mm
03:40 PM 66.8°F19.3°C 53.8°F12.1°C 63% 9.2 mph W14.8 kmh W 13.7 mph22.0 kmh 29.90 in1012.5 mb 0.00 in0.0 mm 0.00 in0.0 mm 0.04 in1.0 mm
03:45 PM 66.7°F19.3°C 53.2°F11.8°C 62% 9.4 mph W15.1 kmh W 13.7 mph22.0 kmh 29.90 in1012.5 mb 0.00 in0.0 mm 0.00 in0.0 mm 0.04 in1.0 mm
03:50 PM 66.5°F19.2°C 52.6°F11.4°C 61% 8.7 mph W14.0 kmh W 11.6 mph18.7 kmh 29.87 in1011.5 mb 0.00 in0.0 mm 0.00 in0.0 mm 0.04 in1.0 mm
03:55 PM 66.5°F19.2°C 52.6°F11.4°C 61% 8.7 mph W14.0 kmh W 12.2 mph19.6 kmh 29.87 in1011.5 mb 0.00 in0.0 mm 0.00 in0.0 mm 0.04 in1.0 mm
04:00 PM 66.3°F19.1°C 52.4°F11.3°C 61% 9.0 mph W14.5 kmh W 12.2 mph19.6 kmh 29.87 in1011.5 mb 0.00 in0.0 mm 0.00 in0.0 mm 0.04 in1.0 mm
04:05 PM 66.1°F18.9°C 52.7°F11.5°C 62% 7.4 mph W11.9 kmh W 11.3 mph18.2 kmh 29.87 in1011.5 mb 0.00 in0.0 mm 0.00 in0.0 mm 0.04 in1.0 mm
04:10 PM 66.1°F18.9°C 52.3°F11.3°C 61% 7.0 mph WSW11.3 kmh WSW 10.1 mph16.3 kmh 29.87 in1011.5 mb 0.00 in0.0 mm 0.00 in0.0 mm 0.04 in1.0 mm
04:15 PM 66.3°F19.1°C 52.4°F11.3°C 61% 8.0 mph WSW12.9 kmh WSW 11.3 mph18.2 kmh 29.87 in1011.5 mb 0.00 in0.0 mm 0.00 in0.0 mm 0.04 in1.0 mm
04:20 PM 66.3°F19.1°C 52.4°F11.3°C 61% 7.9 mph W12.7 kmh W 11.3 mph18.2 kmh 29.87 in1011.5 mb 0.00 in0.0 mm 0.00 in0.0 mm 0.04 in1.0 mm
04:25 PM 66.8°F19.3°C 52.9°F11.6°C 61% 6.9 mph W11.1 kmh W 10.1 mph16.3 kmh 29.87 in1011.5 mb 0.00 in0.0 mm 0.00 in0.0 mm 0.04 in1.0 mm
04:30 PM 67.2°F19.6°C 53.3°F11.8°C 61% 8.0 mph W12.9 kmh W 11.3 mph18.2 kmh 29.87 in1011.5 mb 0.00 in0.0 mm 0.00 in0.0 mm 0.04 in1.0 mm
04:35 PM 67.4°F19.7°C 53.5°F11.9°C 61% 8.8 mph W14.2 kmh W 11.3 mph18.2 kmh 29.87 in1011.5 mb 0.00 in0.0 mm 0.00 in0.0 mm 0.04 in1.0 mm
04:40 PM 67.2°F19.6°C 53.3°F11.8°C 61% 8.5 mph W13.7 kmh W 11.3 mph18.2 kmh 29.87 in1011.5 mb 0.00 in0.0 mm 0.00 in0.0 mm 0.04 in1.0 mm
04:45 PM 67.4°F19.7°C 53.0°F11.7°C 60% 9.0 mph W14.5 kmh W 11.6 mph18.7 kmh 29.87 in1011.5 mb 0.00 in0.0 mm 0.00 in0.0 mm 0.04 in1.0 mm
04:50 PM 67.0°F19.4°C 52.2°F11.2°C 59% 9.5 mph W15.3 kmh W 12.5 mph20.1 kmh 29.90 in1012.5 mb 0.00 in0.0 mm 0.00 in0.0 mm 0.04 in1.0 mm
04:55 PM 66.7°F19.3°C 51.9°F11.1°C 59% 8.6 mph W13.8 kmh W 12.5 mph20.1 kmh 29.90 in1012.5 mb 0.00 in0.0 mm 0.00 in0.0 mm 0.04 in1.0 mm
05:00 PM 66.3°F19.1°C 51.5°F10.8°C 59% 7.4 mph W11.9 kmh W 10.1 mph16.3 kmh 29.90 in1012.5 mb 0.00 in0.0 mm 0.00 in0.0 mm 0.04 in1.0 mm
05:05 PM 65.9°F18.8°C 51.2°F10.7°C 59% 6.8 mph W10.9 kmh W 11.3 mph18.2 kmh 29.87 in1011.5 mb 0.00 in0.0 mm 0.00 in0.0 mm 0.04 in1.0 mm
05:10 PM 65.8°F18.8°C 51.0°F10.6°C 59% 6.3 mph W10.1 kmh W 11.3 mph18.2 kmh 29.87 in1011.5 mb 0.00 in0.0 mm 0.00 in0.0 mm 0.04 in1.0 mm
05:15 PM 65.6°F18.7°C 50.9°F10.5°C 59% 7.5 mph WSW12.1 kmh WSW 11.3 mph18.2 kmh 29.87 in1011.5 mb 0.00 in0.0 mm 0.00 in0.0 mm 0.04 in1.0 mm
05:20 PM 65.4°F18.6°C 50.7°F10.4°C 59% 8.5 mph W13.7 kmh W 11.3 mph18.2 kmh 29.90 in1012.5 mb 0.00 in0.0 mm 0.00 in0.0 mm 0.04 in1.0 mm
05:25 PM 65.2°F18.4°C 50.5°F10.3°C 59% 8.3 mph WNW13.4 kmh WNW 11.6 mph18.7 kmh 29.90 in1012.5 mb 0.00 in0.0 mm 0.00 in0.0 mm 0.04 in1.0 mm
05:30 PM 65.0°F18.3°C 50.3°F10.2°C 59% 9.0 mph W14.5 kmh W 11.6 mph18.7 kmh 29.90 in1012.5 mb 0.00 in0.0 mm 0.00 in0.0 mm 0.04 in1.0 mm
05:35 PM 65.0°F18.3°C 50.8°F10.4°C 60% 9.1 mph W14.6 kmh W 13.7 mph22.0 kmh 29.90 in1012.5 mb 0.00 in0.0 mm 0.00 in0.0 mm 0.04 in1.0 mm
05:40 PM 64.8°F18.2°C 50.6°F10.3°C 60% 8.2 mph W13.2 kmh W 13.7 mph22.0 kmh 29.90 in1012.5 mb 0.00 in0.0 mm 0.00 in0.0 mm 0.04 in1.0 mm
05:45 PM 64.8°F18.2°C 50.2°F10.1°C 59% 7.2 mph WNW11.6 kmh WNW 11.3 mph18.2 kmh 29.90 in1012.5 mb 0.00 in0.0 mm 0.00 in0.0 mm 0.04 in1.0 mm
05:50 PM 64.7°F18.2°C 50.0°F10.0°C 59% 6.9 mph WNW11.1 kmh WNW 8.9 mph14.3 kmh 29.90 in1012.5 mb 0.00 in0.0 mm 0.00 in0.0 mm 0.04 in1.0 mm
05:55 PM 64.7°F18.2°C 50.0°F10.0°C 59% 6.9 mph WNW11.1 kmh WNW 9.8 mph15.8 kmh 29.90 in1012.5 mb 0.00 in0.0 mm 0.00 in0.0 mm 0.04 in1.0 mm
06:00 PM 64.3°F17.9°C 49.7°F9.8°C 59% 6.1 mph WNW9.8 kmh WNW 9.8 mph15.8 kmh 29.90 in1012.5 mb 0.00 in0.0 mm 0.00 in0.0 mm 0.04 in1.0 mm
06:05 PM 64.3°F17.9°C 50.1°F10.1°C 60% 5.2 mph W8.4 kmh W 8.0 mph12.9 kmh 29.90 in1012.5 mb 0.00 in0.0 mm 0.00 in0.0 mm 0.04 in1.0 mm
06:10 PM 64.1°F17.8°C 50.0°F10.0°C 60% 5.1 mph W8.2 kmh W 9.5 mph15.3 kmh 29.90 in1012.5 mb 0.00 in0.0 mm 0.00 in0.0 mm 0.04 in1.0 mm
06:15 PM 64.1°F17.8°C 50.4°F10.2°C 61% 5.6 mph W9.0 kmh W 9.5 mph15.3 kmh 29.90 in1012.5 mb 0.00 in0.0 mm 0.00 in0.0 mm 0.04 in1.0 mm
06:20 PM 64.3°F17.9°C 50.6°F10.3°C 61% 6.0 mph W9.7 kmh W 8.6 mph13.8 kmh 29.90 in1012.5 mb 0.00 in0.0 mm 0.00 in0.0 mm 0.04 in1.0 mm
06:25 PM 64.3°F17.9°C 50.1°F10.1°C 60% 5.9 mph W9.5 kmh W 8.6 mph13.8 kmh 29.90 in1012.5 mb 0.00 in0.0 mm 0.00 in0.0 mm 0.04 in1.0 mm
06:30 PM 64.1°F17.8°C 50.0°F10.0°C 60% 5.0 mph W8.0 kmh W 7.1 mph11.4 kmh 29.90 in1012.5 mb 0.00 in0.0 mm 0.00 in0.0 mm 0.04 in1.0 mm
06:35 PM 64.1°F17.8°C 50.0°F10.0°C 60% 4.9 mph W7.9 kmh W 7.7 mph12.4 kmh 29.90 in1012.5 mb 0.00 in0.0 mm 0.00 in0.0 mm 0.04 in1.0 mm
06:40 PM 64.0°F17.8°C 49.8°F9.9°C 60% 3.5 mph W5.6 kmh W 7.7 mph12.4 kmh 29.90 in1012.5 mb 0.00 in0.0 mm 0.00 in0.0 mm 0.04 in1.0 mm
06:45 PM 63.8°F17.7°C 49.6°F9.8°C 60% 4.0 mph WNW6.4 kmh WNW 7.4 mph11.9 kmh 29.90 in1012.5 mb 0.00 in0.0 mm 0.00 in0.0 mm 0.04 in1.0 mm
06:50 PM 63.8°F17.7°C 49.6°F9.8°C 60% 5.2 mph W8.4 kmh W 8.3 mph13.4 kmh 29.90 in1012.5 mb 0.00 in0.0 mm 0.00 in0.0 mm 0.04 in1.0 mm
06:55 PM 63.6°F17.6°C 49.4°F9.7°C 60% 5.5 mph WSW8.9 kmh WSW 9.5 mph15.3 kmh 29.90 in1012.5 mb 0.00 in0.0 mm 0.00 in0.0 mm 0.04 in1.0 mm
07:00 PM 63.4°F17.4°C 49.3°F9.6°C 60% 5.8 mph WSW9.3 kmh WSW 9.5 mph15.3 kmh 29.90 in1012.5 mb 0.00 in0.0 mm 0.00 in0.0 mm 0.04 in1.0 mm
07:05 PM 63.2°F17.3°C 49.1°F9.5°C 60% 4.6 mph WNW7.4 kmh WNW 6.5 mph10.5 kmh 29.90 in1012.5 mb 0.00 in0.0 mm 0.00 in0.0 mm 0.04 in1.0 mm
07:10 PM 63.2°F17.3°C 49.1°F9.5°C 60% 4.1 mph NW6.6 kmh NW 5.7 mph9.2 kmh 29.90 in1012.5 mb 0.00 in0.0 mm 0.00 in0.0 mm 0.04 in1.0 mm
07:15 PM 63.0°F17.2°C 49.4°F9.7°C 61% 3.4 mph NW5.5 kmh NW 5.7 mph9.2 kmh 29.90 in1012.5 mb 0.00 in0.0 mm 0.00 in0.0 mm 0.04 in1.0 mm
07:20 PM 63.0°F17.2°C 49.4°F9.7°C 61% 4.0 mph W6.4 kmh W 7.4 mph11.9 kmh 29.90 in1012.5 mb 0.00 in0.0 mm 0.00 in0.0 mm 0.04 in1.0 mm
07:25 PM 63.0°F17.2°C 49.4°F9.7°C 61% 5.5 mph W8.9 kmh W 7.4 mph11.9 kmh 29.90 in1012.5 mb 0.00 in0.0 mm 0.00 in0.0 mm 0.04 in1.0 mm
07:30 PM 62.9°F17.2°C 49.2°F9.6°C 61% 5.8 mph WNW9.3 kmh WNW 8.0 mph12.9 kmh 29.90 in1012.5 mb 0.00 in0.0 mm 0.00 in0.0 mm 0.04 in1.0 mm
07:35 PM 62.7°F17.1°C 49.5°F9.7°C 62% 6.0 mph NW9.7 kmh NW 9.5 mph15.3 kmh 29.90 in1012.5 mb 0.00 in0.0 mm 0.00 in0.0 mm 0.04 in1.0 mm
07:40 PM 62.5°F16.9°C 48.9°F9.4°C 61% 7.0 mph WNW11.3 kmh WNW 13.4 mph21.6 kmh 29.90 in1012.5 mb 0.00 in0.0 mm 0.00 in0.0 mm 0.04 in1.0 mm
07:45 PM 62.3°F16.8°C 49.1°F9.5°C 62% 6.6 mph W10.6 kmh W 13.4 mph21.6 kmh 29.90 in1012.5 mb 0.00 in0.0 mm 0.00 in0.0 mm 0.04 in1.0 mm
07:50 PM 62.3°F16.8°C 49.1°F9.5°C 62% 5.4 mph WNW8.7 kmh WNW 7.1 mph11.4 kmh 29.90 in1012.5 mb 0.00 in0.0 mm 0.00 in0.0 mm 0.04 in1.0 mm
07:55 PM 62.2°F16.8°C 49.0°F9.4°C 62% 5.1 mph WNW8.2 kmh WNW 8.0 mph12.9 kmh 29.90 in1012.5 mb 0.00 in0.0 mm 0.00 in0.0 mm 0.04 in1.0 mm
08:00 PM 62.0°F16.7°C 48.8°F9.3°C 62% 4.5 mph WNW7.2 kmh WNW 8.0 mph12.9 kmh 29.90 in1012.5 mb 0.00 in0.0 mm 0.00 in0.0 mm 0.04 in1.0 mm
08:05 PM 62.0°F16.7°C 49.2°F9.6°C 63% 5.0 mph W8.0 kmh W 8.9 mph14.3 kmh 29.90 in1012.5 mb 0.00 in0.0 mm 0.00 in0.0 mm 0.04 in1.0 mm
08:10 PM 62.0°F16.7°C 49.2°F9.6°C 63% 5.1 mph W8.2 kmh W 8.9 mph14.3 kmh 29.90 in1012.5 mb 0.00 in0.0 mm 0.00 in0.0 mm 0.04 in1.0 mm
08:15 PM 62.0°F16.7°C 49.2°F9.6°C 63% 5.6 mph WNW9.0 kmh WNW 8.0 mph12.9 kmh 29.90 in1012.5 mb 0.00 in0.0 mm 0.00 in0.0 mm 0.04 in1.0 mm
08:20 PM 61.8°F16.6°C 49.1°F9.5°C 63% 6.3 mph NW10.1 kmh NW 8.0 mph12.9 kmh 29.90 in1012.5 mb 0.00 in0.0 mm 0.00 in0.0 mm 0.04 in1.0 mm
08:25 PM 61.6°F16.4°C 49.3°F9.6°C 64% 6.4 mph NW10.3 kmh NW 8.0 mph12.9 kmh 29.90 in1012.5 mb 0.00 in0.0 mm 0.00 in0.0 mm 0.04 in1.0 mm
08:30 PM 61.6°F16.4°C 49.3°F9.6°C 64% 5.1 mph NW8.2 kmh NW 7.4 mph11.9 kmh 29.90 in1012.5 mb 0.00 in0.0 mm 0.00 in0.0 mm 0.04 in1.0 mm
08:35 PM 61.4°F16.3°C 49.6°F9.8°C 65% 5.7 mph WNW9.2 kmh WNW 8.3 mph13.4 kmh 29.90 in1012.5 mb 0.00 in0.0 mm 0.00 in0.0 mm 0.04 in1.0 mm
08:40 PM 61.4°F16.3°C 49.6°F9.8°C 65% 6.6 mph WNW10.6 kmh WNW 8.6 mph13.8 kmh 29.90 in1012.5 mb 0.00 in0.0 mm 0.00 in0.0 mm 0.04 in1.0 mm
08:45 PM 61.4°F16.3°C 49.6°F9.8°C 65% 7.1 mph WNW11.4 kmh WNW 10.1 mph16.3 kmh 29.90 in1012.5 mb 0.00 in0.0 mm 0.00 in0.0 mm 0.04 in1.0 mm
08:50 PM 61.3°F16.3°C 49.8°F9.9°C 66% 6.5 mph WNW10.5 kmh WNW 10.1 mph16.3 kmh 29.90 in1012.5 mb 0.00 in0.0 mm 0.00 in0.0 mm 0.04 in1.0 mm
08:55 PM 61.3°F16.3°C 49.8°F9.9°C 66% 4.9 mph WNW7.9 kmh WNW 7.4 mph11.9 kmh 29.90 in1012.5 mb 0.00 in0.0 mm 0.00 in0.0 mm 0.04 in1.0 mm
09:00 PM 61.3°F16.3°C 49.8°F9.9°C 66% 4.6 mph WNW7.4 kmh WNW 7.4 mph11.9 kmh 29.90 in1012.5 mb 0.00 in0.0 mm 0.00 in0.0 mm 0.04 in1.0 mm
09:05 PM 61.1°F16.2°C 49.6°F9.8°C 66% 5.3 mph WNW8.5 kmh WNW 7.4 mph11.9 kmh 29.90 in1012.5 mb 0.00 in0.0 mm 0.00 in0.0 mm 0.04 in1.0 mm
09:10 PM 61.1°F16.2°C 49.6°F9.8°C 66% 5.1 mph W8.2 kmh W 8.0 mph12.9 kmh 29.90 in1012.5 mb 0.00 in0.0 mm 0.00 in0.0 mm 0.04 in1.0 mm
09:15 PM 61.1°F16.2°C 49.6°F9.8°C 66% 3.8 mph W6.1 kmh W 8.0 mph12.9 kmh 29.90 in1012.5 mb 0.00 in0.0 mm 0.00 in0.0 mm 0.04 in1.0 mm
09:20 PM 60.9°F16.1°C 49.5°F9.7°C 66% 3.7 mph WNW6.0 kmh WNW 7.4 mph11.9 kmh 29.90 in1012.5 mb 0.00 in0.0 mm 0.00 in0.0 mm 0.04 in1.0 mm
09:25 PM 60.9°F16.1°C 49.5°F9.7°C 66% 5.4 mph WNW8.7 kmh WNW 8.6 mph13.8 kmh 29.90 in1012.5 mb 0.00 in0.0 mm 0.00 in0.0 mm 0.04 in1.0 mm
09:30 PM 60.9°F16.1°C 49.0°F9.4°C 65% 6.5 mph WNW10.5 kmh WNW 10.7 mph17.2 kmh 29.90 in1012.5 mb 0.00 in0.0 mm 0.00 in0.0 mm 0.04 in1.0 mm
09:35 PM 60.7°F15.9°C 48.9°F9.4°C 65% 6.2 mph WNW10.0 kmh WNW 10.7 mph17.2 kmh 29.90 in1012.5 mb 0.00 in0.0 mm 0.00 in0.0 mm 0.04 in1.0 mm
09:40 PM 60.7°F15.9°C 49.3°F9.6°C 66% 6.7 mph NW10.8 kmh NW 10.7 mph17.2 kmh 29.90 in1012.5 mb 0.00 in0.0 mm 0.00 in0.0 mm 0.04 in1.0 mm
09:45 PM 60.7°F15.9°C 49.3°F9.6°C 66% 6.4 mph NW10.3 kmh NW 10.7 mph17.2 kmh 29.90 in1012.5 mb 0.00 in0.0 mm 0.00 in0.0 mm 0.04 in1.0 mm
09:50 PM 60.5°F15.8°C 49.1°F9.5°C 66% 5.5 mph WNW8.9 kmh WNW 7.7 mph12.4 kmh 29.90 in1012.5 mb 0.00 in0.0 mm 0.00 in0.0 mm 0.04 in1.0 mm
09:55 PM 60.5°F15.8°C 49.1°F9.5°C 66% 5.3 mph WNW8.5 kmh WNW 8.3 mph13.4 kmh 29.90 in1012.5 mb 0.00 in0.0 mm 0.00 in0.0 mm 0.04 in1.0 mm
10:00 PM 60.5°F15.8°C 49.1°F9.5°C 66% 5.8 mph WNW9.3 kmh WNW 8.3 mph13.4 kmh 29.90 in1012.5 mb 0.00 in0.0 mm 0.00 in0.0 mm 0.04 in1.0 mm
10:05 PM 60.5°F15.8°C 49.1°F9.5°C 66% 5.2 mph NW8.4 kmh NW 7.1 mph11.4 kmh 29.90 in1012.5 mb 0.00 in0.0 mm 0.00 in0.0 mm 0.04 in1.0 mm
10:10 PM 60.3°F15.7°C 48.9°F9.4°C 66% 4.3 mph NW6.9 kmh NW 8.0 mph12.9 kmh 29.90 in1012.5 mb 0.00 in0.0 mm 0.00 in0.0 mm 0.04 in1.0 mm
10:15 PM 60.3°F15.7°C 48.9°F9.4°C 66% 4.7 mph WNW7.6 kmh WNW 8.0 mph12.9 kmh 29.90 in1012.5 mb 0.00 in0.0 mm 0.00 in0.0 mm 0.04 in1.0 mm
10:20 PM 60.2°F15.7°C 48.8°F9.3°C 66% 6.1 mph WNW9.8 kmh WNW 8.6 mph13.8 kmh 29.90 in1012.5 mb 0.00 in0.0 mm 0.00 in0.0 mm 0.04 in1.0 mm
10:25 PM 60.2°F15.7°C 48.8°F9.3°C 66% 6.4 mph NW10.3 kmh NW 8.6 mph13.8 kmh 29.90 in1012.5 mb 0.00 in0.0 mm 0.00 in0.0 mm 0.04 in1.0 mm
10:30 PM 60.2°F15.7°C 48.8°F9.3°C 66% 5.0 mph NW8.0 kmh NW 8.6 mph13.8 kmh 29.90 in1012.5 mb 0.00 in0.0 mm 0.00 in0.0 mm 0.04 in1.0 mm
10:35 PM 60.0°F15.6°C 49.0°F9.4°C 67% 4.5 mph NW7.2 kmh NW 8.6 mph13.8 kmh 29.90 in1012.5 mb 0.00 in0.0 mm 0.00 in0.0 mm 0.04 in1.0 mm
10:40 PM 60.0°F15.6°C 49.0°F9.4°C 67% 4.0 mph NW6.4 kmh NW 5.7 mph9.2 kmh 29.90 in1012.5 mb 0.00 in0.0 mm 0.00 in0.0 mm 0.04 in1.0 mm
10:45 PM 59.8°F15.4°C 48.8°F9.3°C 67% 3.6 mph WNW5.8 kmh WNW 5.7 mph9.2 kmh 29.90 in1012.5 mb 0.00 in0.0 mm 0.00 in0.0 mm 0.04 in1.0 mm
10:50 PM 59.8°F15.4°C 48.8°F9.3°C 67% 5.3 mph WNW8.5 kmh WNW 8.6 mph13.8 kmh 29.90 in1012.5 mb 0.00 in0.0 mm 0.00 in0.0 mm 0.04 in1.0 mm
10:55 PM 59.8°F15.4°C 48.8°F9.3°C 67% 6.1 mph WNW9.8 kmh WNW 8.6 mph13.8 kmh 29.90 in1012.5 mb 0.00 in0.0 mm 0.00 in0.0 mm 0.04 in1.0 mm
11:00 PM 59.6°F15.3°C 48.7°F9.3°C 67% 6.1 mph WNW9.8 kmh WNW 8.6 mph13.8 kmh 29.90 in1012.5 mb 0.00 in0.0 mm 0.00 in0.0 mm 0.04 in1.0 mm
11:05 PM 59.6°F15.3°C 48.7°F9.3°C 67% 5.6 mph W9.0 kmh W 7.7 mph12.4 kmh 29.90 in1012.5 mb 0.00 in0.0 mm 0.00 in0.0 mm 0.04 in1.0 mm
11:10 PM 59.5°F15.3°C 48.9°F9.4°C 68% 4.1 mph W6.6 kmh W 6.5 mph10.5 kmh 29.90 in1012.5 mb 0.00 in0.0 mm 0.00 in0.0 mm 0.04 in1.0 mm
11:15 PM 59.5°F15.3°C 48.9°F9.4°C 68% 3.2 mph WNW5.1 kmh WNW 6.5 mph10.5 kmh 29.90 in1012.5 mb 0.00 in0.0 mm 0.00 in0.0 mm 0.04 in1.0 mm
11:20 PM 59.3°F15.2°C 48.7°F9.3°C 68% 4.3 mph NW6.9 kmh NW 6.5 mph10.5 kmh 29.90 in1012.5 mb 0.00 in0.0 mm 0.00 in0.0 mm 0.04 in1.0 mm
11:25 PM 59.3°F15.2°C 48.7°F9.3°C 68% 4.2 mph NW6.8 kmh NW 6.5 mph10.5 kmh 29.90 in1012.5 mb 0.00 in0.0 mm 0.00 in0.0 mm 0.04 in1.0 mm
11:30 PM 59.1°F15.1°C 48.5°F9.2°C 68% 4.3 mph NW6.9 kmh NW 8.6 mph13.8 kmh 29.90 in1012.5 mb 0.00 in0.0 mm 0.00 in0.0 mm 0.04 in1.0 mm
11:35 PM 59.1°F15.1°C 48.5°F9.2°C 68% 5.9 mph NW9.5 kmh NW 9.8 mph15.8 kmh 29.90 in1012.5 mb 0.00 in0.0 mm 0.00 in0.0 mm 0.04 in1.0 mm
11:40 PM 58.9°F14.9°C 48.4°F9.1°C 68% 5.5 mph NW8.9 kmh NW 9.8 mph15.8 kmh 29.90 in1012.5 mb 0.00 in0.0 mm 0.00 in0.0 mm 0.04 in1.0 mm
11:45 PM 58.9°F14.9°C 48.4°F9.1°C 68% 3.7 mph NW6.0 kmh NW 5.7 mph9.2 kmh 29.90 in1012.5 mb 0.00 in0.0 mm 0.00 in0.0 mm 0.04 in1.0 mm
11:50 PM 58.9°F14.9°C 48.4°F9.1°C 68% 3.3 mph NW5.3 kmh NW 5.7 mph9.2 kmh 29.90 in1012.5 mb 0.00 in0.0 mm 0.00 in0.0 mm 0.04 in1.0 mm
11:55 PM 58.9°F14.9°C 48.8°F9.3°C 69% 2.9 mph NW4.7 kmh NW 5.1 mph8.2 kmh 29.90 in1012.5 mb 0.00 in0.0 mm 0.00 in0.0 mm 0.04 in1.0 mm